Time;durP1;ratioP1;P1;durP2;ratioP2;P2;SDS_P1;SDS_P2;PMS_P1;PMS_P2;Temp;Humidity;BMP_temperature;BMP_pressure;BME280_temperature;BME280_humidity;BME280_pressure;Samples;Min_cycle;Max_cycle;Signal;HPM_P1;HPM_P2
2022/09/27 00:00:43;;;;;;;0.80;0.75;;;;;;;18.38;72.36;98734.38;5089114;28;20543;-87
2022/09/27 00:03:10;;;;;;;0.70;0.70;;;;;;;18.68;71.95;98744.94;5089689;28;20028;-87
2022/09/27 00:05:36;;;;;;;1.35;1.25;;;;;;;18.55;72.31;98731.50;5077330;28;20035;-87
2022/09/27 00:08:01;;;;;;;0.20;0.20;;;;;;;18.43;73.45;98725.13;5073282;28;20028;-88
2022/09/27 00:10:27;;;;;;;1.33;1.23;;;;;;;18.31;72.95;98685.00;5077103;28;20028;-88
2022/09/27 00:12:53;;;;;;;0.82;0.75;;;;;;;18.44;71.93;98685.91;5071031;28;20032;-86
2022/09/27 00:15:19;;;;;;;0.63;0.63;;;;;;;18.60;71.42;98689.34;5067996;28;20043;-87
2022/09/27 00:17:45;;;;;;;1.70;1.60;;;;;;;18.74;70.88;98703.63;5069218;28;20107;-87
2022/09/27 00:20:10;;;;;;;1.08;0.50;;;;;;;18.86;70.68;98726.91;5069826;28;20170;-87
2022/09/27 00:22:36;;;;;;;16.00;1.35;;;;;;;19.04;70.42;98722.19;5076902;28;20413;-86
2022/09/27 00:25:04;;;;;;;0.50;0.50;;;;;;;19.02;70.26;98732.13;5075394;28;20040;-87
2022/09/27 00:27:30;;;;;;;1.10;1.05;;;;;;;18.88;71.09;98705.44;5068321;28;20820;-86
2022/09/27 00:29:56;;;;;;;0.47;0.47;;;;;;;18.66;71.64;98695.22;5079415;28;20036;-87
2022/09/27 00:32:21;;;;;;;0.73;0.73;;;;;;;18.39;71.60;98648.00;5086497;28;20168;-87
2022/09/27 00:34:47;;;;;;;1.30;1.20;;;;;;;18.53;71.88;98689.84;5058805;28;20647;-87
2022/09/27 00:37:12;;;;;;;0.70;0.70;;;;;;;18.66;71.26;98698.78;5075032;28;20135;-87
2022/09/27 00:39:38;;;;;;;2.05;1.85;;;;;;;18.89;71.21;98717.81;5080097;28;20040;-87
2022/09/27 00:42:05;;;;;;;3.30;3.00;;;;;;;18.89;71.69;98728.50;5078657;28;20398;-88
2022/09/27 00:44:37;;;;;;;0.60;0.52;;;;;;;19.00;71.42;98734.03;5088783;28;20035;-89
2022/09/27 00:47:08;;;;;;;0.80;0.75;;;;;;;18.92;71.84;98739.00;5088522;28;20044;-87
2022/09/27 00:49:40;;;;;;;3.30;1.30;;;;;;;18.87;71.59;98695.69;5078073;28;20072;-87
2022/09/27 00:52:17;;;;;;;1.38;1.27;;;;;;;18.85;71.83;98727.88;5067107;28;20032;-87
2022/09/27 00:54:49;;;;;;;3.72;2.70;;;;;;;18.63;72.59;98701.66;5068490;28;20059;-87
2022/09/27 00:57:16;;;;;;;2.05;1.85;;;;;;;18.56;73.02;98702.97;5074731;28;20028;-86
2022/09/27 00:59:46;;;;;;;2.13;1.13;;;;;;;18.57;73.43;98694.03;5078182;28;20032;-88
2022/09/27 01:02:12;;;;;;;0.73;0.73;;;;;;;18.54;73.13;98683.53;5086104;28;20044;-86
2022/09/27 01:04:39;;;;;;;1.25;0.98;;;;;;;18.71;72.81;98696.66;5085982;28;20040;-87
2022/09/27 01:07:06;;;;;;;2.30;2.17;;;;;;;18.48;72.39;98654.56;5056916;28;20540;-86
2022/09/27 01:09:33;;;;;;;1.70;1.60;;;;;;;18.54;72.34;98651.50;5085198;28;20127;-88
2022/09/27 01:12:28;;;;;;;1.52;1.42;;;;;;;18.43;74.60;98700.25;5070707;28;20058;-87
2022/09/27 01:15:12;;;;;;;;;;;;;;;18.60;73.89;98702.69;5057807;28;20044;-87
2022/09/27 01:18:04;;;;;;;6.55;2.55;;;;;;;18.65;74.04;98693.53;5087308;28;20447;-88
2022/09/27 01:20:48;;;;;;;0.85;0.82;;;;;;;18.78;73.88;98702.47;5089467;28;20034;-88
2022/09/27 01:24:01;;;;;;;3.15;2.75;;;;;;;18.70;74.05;98705.63;5089708;28;20111;-91
2022/09/27 01:26:52;;;;;;;0.17;0.17;;;;;;;18.86;73.24;98718.91;4986252;28;20108;-88
2022/09/27 01:29:35;;;;;;;3.58;2.28;;;;;;;18.88;73.57;98708.13;4997301;28;20041;-88
2022/09/27 01:32:07;;;;;;;1.65;0.95;;;;;;;18.89;73.83;98702.69;5068266;28;20032;-87
2022/09/27 01:34:54;;;;;;;1.25;1.20;;;;;;;18.85;74.15;98706.50;5088827;28;20042;-89
2022/09/27 01:37:28;;;;;;;0.77;0.65;;;;;;;18.98;73.90;98706.53;5086041;28;20048;-88
2022/09/27 01:40:23;;;;;;;0.93;0.93;;;;;;;18.59;73.91;98646.72;5086485;28;20036;-88
2022/09/27 01:43:07;;;;;;;0.88;0.88;;;;;;;18.66;75.15;98682.75;5068541;28;20413;-87
2022/09/27 01:45:39;;;;;;;0.80;0.80;;;;;;;18.75;74.26;98683.97;5086557;28;20032;-87
2022/09/27 01:48:41;;;;;;;2.80;2.22;;;;;;;18.77;74.46;98703.44;5086785;28;20086;-87
2022/09/27 01:51:16;;;;;;;1.45;1.38;;;;;;;18.25;76.11;98664.88;5050229;28;20551;-87
2022/09/27 01:53:49;;;;;;;1.60;1.52;;;;;;;18.00;77.88;98660.22;5069866;28;20038;-87
2022/09/27 01:56:25;;;;;;;0.88;0.88;;;;;;;18.04;77.19;98680.41;5071694;28;20114;-88
2022/09/27 01:59:05;;;;;;;1.83;1.73;;;;;;;17.91;77.97;98660.78;5073242;28;20029;-87
2022/09/27 02:01:34;;;;;;;0.98;0.93;;;;;;;17.79;79.96;98667.69;5072063;28;20028;-88
2022/09/27 02:04:01;;;;;;;2.03;1.65;;;;;;;18.05;79.51;98715.00;5054132;28;20039;-87
2022/09/27 02:06:32;;;;;;;3.85;2.40;;;;;;;17.87;79.78;98660.06;5087368;28;20028;-87
2022/09/27 02:09:02;;;;;;;0.60;0.60;;;;;;;18.24;79.54;98698.72;5071932;28;20459;-87
2022/09/27 02:11:28;;;;;;;1.85;1.38;;;;;;;18.05;79.25;98666.13;5078548;28;20082;-89
2022/09/27 02:14:02;;;;;;;0.63;0.63;;;;;;;18.23;79.72;98690.81;5091842;28;20024;-88
2022/09/27 02:16:53;;;;;;;1.50;1.25;;;;;;;18.35;79.21;98674.03;5078543;28;20035;-87
2022/09/27 02:19:44;;;;;;;2.15;1.23;;;;;;;18.42;78.44;98659.31;5070936;28;20043;-88
2022/09/27 02:22:16;;;;;;;4.70;3.70;;;;;;;18.38;78.53;98671.16;5071972;28;20044;-85
2022/09/27 02:24:59;;;;;;;2.30;2.17;;;;;;;18.20;80.06;98667.00;5086050;28;20024;-87
2022/09/27 02:27:38;;;;;;;1.67;1.58;;;;;;;18.33;79.38;98659.06;5091473;28;20047;-87
2022/09/27 02:30:11;;;;;;;1.65;1.38;;;;;;;18.55;79.03;98695.91;5075636;28;20571;-87
2022/09/27 02:32:38;;;;;;;1.58;1.48;;;;;;;18.41;79.21;98678.97;5090647;28;20040;-86
2022/09/27 02:35:12;;;;;;;3.58;2.25;;;;;;;18.35;79.83;98697.19;5070682;28;20071;-86
2022/09/27 02:37:38;;;;;;;1.35;1.02;;;;;;;18.20;80.61;98699.03;5071456;28;20282;-88
2022/09/27 02:40:04;;;;;;;2.95;2.75;;;;;;;18.14;80.37;98681.56;5081534;28;20500;-87
2022/09/27 02:42:31;;;;;;;2.08;1.67;;;;;;;18.10;80.41;98679.19;5073491;28;20032;-86
2022/09/27 02:44:57;;;;;;;0.98;0.88;;;;;;;18.35;80.17;98700.72;5072305;28;20028;-86
2022/09/27 02:47:45;;;;;;;1.15;1.05;;;;;;;18.16;81.55;98714.34;5081268;28;20100;-87
2022/09/27 02:50:37;;;;;;;3.92;3.45;;;;;;;18.17;81.30;98708.06;5069591;28;20032;-87
2022/09/27 02:53:58;;;;;;;1.92;1.80;;;;;;;18.06;81.74;98695.38;5070190;28;20032;-88
2022/09/27 02:56:32;;;;;;;0.60;0.60;;;;;;;18.21;81.13;98704.25;4992522;28;20520;-87
2022/09/27 02:59:03;;;;;;;2.88;1.77;;;;;;;18.15;81.30;98685.09;5083335;28;20058;-87
2022/09/27 03:01:41;;;;;;;0.30;0.30;;;;;;;18.22;80.46;98694.44;5076543;28;20467;-86
2022/09/27 03:04:14;;;;;;;0.65;0.65;;;;;;;18.22;79.62;98691.75;5084964;28;20088;-87
2022/09/27 03:06:43;;;;;;;2.17;1.55;;;;;;;18.01;79.98;98680.59;5084596;28;20119;-88
2022/09/27 03:09:47;;;;;;;1.48;1.40;;;;;;;17.82;79.63;98686.19;5090173;28;20039;-87
2022/09/27 03:12:14;;;;;;;2.00;1.90;;;;;;;17.40;79.83;98640.69;5063812;28;20089;-87
2022/09/27 03:14:40;;;;;;;1.17;1.13;;;;;;;17.40;80.75;98661.16;5071130;28;20481;-87
2022/09/27 03:17:05;;;;;;;3.90;3.35;;;;;;;17.42;81.20;98677.91;5089249;28;20034;-86
2022/09/27 03:19:31;;;;;;;1.58;1.48;;;;;;;17.45;80.52;98648.41;5089539;28;20096;-86
2022/09/27 03:21:57;;;;;;;1.48;1.38;;;;;;;17.71;80.50;98663.69;5071081;28;20024;-86
2022/09/27 03:24:22;;;;;;;1.63;1.52;;;;;;;17.82;79.67;98659.50;5088123;28;20031;-86
2022/09/27 03:26:49;;;;;;;1.67;1.58;;;;;;;17.94;78.94;98677.47;5089251;28;20035;-88
2022/09/27 03:29:15;;;;;;;1.88;1.75;;;;;;;17.88;79.34;98664.47;5088759;28;20040;-88
2022/09/27 03:31:41;;;;;;;1.08;1.05;;;;;;;18.01;78.94;98665.47;5090032;28;20031;-89
2022/09/27 03:34:06;;;;;;;0.43;0.43;;;;;;;17.53;79.71;98614.13;5089133;28;20032;-87
2022/09/27 03:36:32;;;;;;;1.70;1.60;;;;;;;17.80;80.04;98666.75;5090059;28;20036;-86
2022/09/27 03:38:57;;;;;;;1.92;1.83;;;;;;;17.56;80.64;98655.75;5088569;28;20052;-86
2022/09/27 03:41:23;;;;;;;1.13;1.02;;;;;;;17.72;80.58;98678.75;5081114;28;20462;-88
2022/09/27 03:43:49;;;;;;;1.45;1.35;;;;;;;17.72;79.82;98628.06;5070406;28;20044;-89
2022/09/27 03:46:14;;;;;;;3.20;2.88;;;;;;;17.78;79.35;98629.50;5076029;28;20446;-87
2022/09/27 03:48:41;;;;;;;0.60;0.60;;;;;;;17.64;81.06;98625.03;5071561;28;20064;-88
2022/09/27 03:51:07;;;;;;;2.75;1.45;;;;;;;17.77;80.50;98618.94;5077160;28;20426;-90
2022/09/27 03:53:33;;;;;;;1.98;1.77;;;;;;;17.46;81.23;98599.47;5088987;28;20028;-88
2022/09/27 03:55:58;;;;;;;1.27;1.27;;;;;;;17.51;82.24;98624.88;5088891;28;20058;-87
2022/09/27 03:58:24;;;;;;;1.38;0.68;;;;;;;17.39;82.91;98595.47;5089034;28;20031;-87
2022/09/27 04:00:49;;;;;;;1.95;1.02;;;;;;;17.38;82.96;98599.94;5090188;28;20809;-88
2022/09/27 04:03:17;;;;;;;1.83;1.73;;;;;;;17.64;81.89;98619.69;5089177;28;20040;-88
2022/09/27 04:05:44;;;;;;;7.05;2.95;;;;;;;17.49;81.83;98612.63;5084939;28;20028;-88
2022/09/27 04:08:10;;;;;;;1.60;1.50;;;;;;;17.64;82.19;98662.34;5067551;28;20095;-88
2022/09/27 04:10:36;;;;;;;5.20;2.42;;;;;;;17.30;82.74;98600.41;5072429;28;20036;-89
2022/09/27 04:13:02;;;;;;;2.05;1.95;;;;;;;17.45;83.95;98662.56;5088782;28;20058;-95
2022/09/27 04:15:28;;;;;;;2.20;1.55;;;;;;;17.25;83.52;98597.13;5088880;28;20068;-89
2022/09/27 04:17:53;;;;;;;2.42;2.22;;;;;;;17.36;82.63;98592.03;5088580;28;20079;-88
2022/09/27 04:20:19;;;;;;;2.63;2.42;;;;;;;17.57;81.71;98606.81;5070823;28;20036;-90
2022/09/27 04:22:45;;;;;;;2.45;2.28;;;;;;;17.58;81.08;98595.19;5089237;28;20020;-92
2022/09/27 04:25:11;;;;;;;0.60;0.60;;;;;;;17.56;81.06;98605.94;5072438;28;20028;-90
2022/09/27 04:27:37;;;;;;;1.52;1.25;;;;;;;17.57;80.90;98613.00;5089085;28;20051;-92
2022/09/27 04:30:04;;;;;;;0.93;0.93;;;;;;;17.86;80.62;98637.88;5090052;28;20036;-94
2022/09/27 04:32:29;;;;;;;3.95;0.95;;;;;;;17.53;80.84;98592.81;5088232;28;20040;-92
2022/09/27 04:37:40;;;;;;;0.85;0.85;;;;;;;17.58;80.99;98619.19;5086332;28;20127;-92
2022/09/27 04:43:31;;;;;;;1.27;1.20;;;;;;;17.54;81.46;98614.03;5087534;28;20578;-91
2022/09/27 04:45:57;;;;;;;0.65;0.65;;;;;;;17.44;81.33;98620.91;5089806;28;20028;-89
2022/09/27 04:48:22;;;;;;;3.30;1.60;;;;;;;17.54;81.24;98626.53;5071442;28;20528;-91
2022/09/27 04:51:01;;;;;;;1.08;1.05;;;;;;;17.38;81.18;98610.59;5091360;28;20038;-92
2022/09/27 04:53:28;;;;;;;2.17;2.08;;;;;;;17.43;81.33;98600.50;5091631;28;20039;-91
2022/09/27 04:55:54;;;;;;;1.00;1.00;;;;;;;17.38;80.42;98564.41;5091014;28;20402;-88
2022/09/27 04:58:24;;;;;;;1.85;1.75;;;;;;;17.70;80.67;98607.75;5089109;28;20516;-88
2022/09/27 05:04:11;;;;;;;0.50;0.50;;;;;;;18.23;78.83;98624.09;5088891;28;20047;-88
2022/09/27 05:06:37;;;;;;;1.10;0.98;;;;;;;18.06;78.55;98601.16;5088744;28;20032;-89
2022/09/27 05:09:02;;;;;;;0.88;0.70;;;;;;;18.03;78.39;98610.19;5087171;28;20063;-87
2022/09/27 05:11:28;;;;;;;6.40;3.78;;;;;;;18.27;77.66;98617.59;5085229;28;20032;-88
2022/09/27 05:13:53;;;;;;;1.45;1.35;;;;;;;18.29;77.05;98570.31;5069233;28;20028;-87
2022/09/27 05:16:19;;;;;;;0.63;0.50;;;;;;;18.53;76.71;98593.69;5083497;28;20231;-87
2022/09/27 05:18:45;;;;;;;1.65;1.55;;;;;;;18.68;76.21;98590.03;5085983;28;20028;-88
2022/09/27 05:21:11;;;;;;;2.17;0.90;;;;;;;18.63;75.16;98568.13;5090127;28;20884;-91
2022/09/27 05:23:37;;;;;;;2.30;2.13;;;;;;;18.65;74.59;98594.72;5082307;28;20506;-88
2022/09/27 05:26:06;;;;;;;1.50;1.40;;;;;;;18.31;75.00;98560.38;5050800;28;20032;-88
2022/09/27 05:28:34;;;;;;;0.65;0.65;;;;;;;18.86;75.45;98632.53;5072353;28;20126;-87
2022/09/27 05:31:00;;;;;;;1.13;1.13;;;;;;;18.88;74.93;98595.91;5080697;28;20055;-87
2022/09/27 05:33:26;;;;;;;1.65;1.13;;;;;;;18.68;75.15;98587.34;5092113;28;20028;-86
2022/09/27 05:35:56;;;;;;;5.88;3.72;;;;;;;19.08;73.87;98600.75;5092704;28;20058;-88
2022/09/27 05:38:24;;;;;;;6.30;2.35;;;;;;;19.19;72.59;98596.50;5092924;28;20488;-88
2022/09/27 05:40:50;;;;;;;0.98;0.98;;;;;;;19.19;72.55;98586.66;5093369;28;20032;-88
2022/09/27 05:43:20;;;;;;;0.85;0.60;;;;;;;19.55;71.24;98594.94;5075591;28;20827;-87
2022/09/27 05:45:46;;;;;;;0.28;0.28;;;;;;;19.92;69.93;98579.00;5093407;28;20032;-88
2022/09/27 05:48:13;;;;;;;1.00;0.95;;;;;;;20.20;69.03;98573.38;5093088;28;20412;-88
2022/09/27 05:50:39;;;;;;;2.63;1.85;;;;;;;19.97;68.88;98550.09;5092713;28;20048;-87
2022/09/27 05:53:05;;;;;;;1.75;1.65;;;;;;;20.25;67.94;98591.78;5093051;28;20032;-88
2022/09/27 05:55:31;;;;;;;0.90;0.90;;;;;;;20.45;66.49;98578.75;5093288;28;20042;-87
2022/09/27 05:57:58;;;;;;;0.95;0.95;;;;;;;20.20;67.77;98549.28;5092981;28;20028;-88
2022/09/27 06:00:25;;;;;;;1.60;1.50;;;;;;;20.28;67.98;98580.88;5093308;28;20032;-88
2022/09/27 06:03:11;;;;;;;1.25;1.25;;;;;;;20.27;68.24;98572.94;5093659;28;20042;-88
2022/09/27 06:05:38;;;;;;;1.55;0.90;;;;;;;20.07;69.78;98564.53;5092272;28;20509;-88
2022/09/27 06:08:07;;;;;;;1.40;1.30;;;;;;;20.20;68.71;98596.59;5092752;28;20097;-88
2022/09/27 06:10:33;;;;;;;1.63;1.52;;;;;;;20.27;67.79;98580.97;5092383;28;20497;-90
2022/09/27 06:13:11;;;;;;;10.35;2.65;;;;;;;20.11;66.91;98546.41;5092915;28;20024;-87
2022/09/27 06:15:38;;;;;;;5.82;3.53;;;;;;;20.32;66.94;98582.34;5092891;28;20040;-87
2022/09/27 06:18:07;;;;;;;2.67;2.42;;;;;;;20.40;66.16;98552.31;5092677;28;20119;-87
2022/09/27 06:20:33;;;;;;;5.22;1.75;;;;;;;20.68;65.80;98604.75;5093325;28;20082;-88
2022/09/27 06:23:07;;;;;;;3.67;3.08;;;;;;;20.48;67.00;98557.97;5093200;28;20024;-89
2022/09/27 06:25:36;;;;;;;5.05;4.45;;;;;;;20.66;66.44;98566.47;5075106;28;20113;-87
2022/09/27 06:28:03;;;;;;;1.35;1.25;;;;;;;20.69;66.13;98576.13;5074613;28;20413;-88
2022/09/27 06:30:29;;;;;;;1.63;1.52;;;;;;;20.71;66.94;98571.50;5092734;28;20093;-87
2022/09/27 06:32:59;;;;;;;1.92;1.83;;;;;;;20.57;67.28;98541.22;5092417;28;20540;-88
2022/09/27 06:35:26;;;;;;;4.13;2.70;;;;;;;20.86;67.26;98577.53;5092764;28;20033;-88
2022/09/27 06:37:52;;;;;;;2.92;1.13;;;;;;;20.86;66.71;98588.25;5092391;28;20051;-88
2022/09/27 06:40:18;;;;;;;1.92;1.83;;;;;;;21.02;65.38;98596.00;5091891;28;20569;-87
2022/09/27 06:42:44;;;;;;;1.65;1.35;;;;;;;21.06;64.94;98600.16;5074335;28;20397;-87
2022/09/27 06:45:10;;;;;;;0.65;0.65;;;;;;;21.24;64.28;98606.81;5092049;28;20035;-87
2022/09/27 06:47:36;;;;;;;0.75;0.70;;;;;;;20.88;64.53;98547.00;5092741;28;20119;-92
2022/09/27 06:50:05;;;;;;;1.17;1.08;;;;;;;20.92;65.62;98595.84;5092146;28;20047;-85
2022/09/27 06:52:34;;;;;;;2.20;2.00;;;;;;;20.81;67.11;98607.38;5091971;28;20023;-86
2022/09/27 06:55:00;;;;;;;3.03;2.53;;;;;;;20.83;67.03;98575.94;5092501;28;20059;-86
2022/09/27 07:00:23;;;;;;;1.00;0.68;;;;;;;21.10;66.88;98566.78;5092421;28;20039;-86
2022/09/27 07:02:49;;;;;;;2.03;1.85;;;;;;;21.19;66.47;98579.47;5073897;28;20082;-86
2022/09/27 07:05:16;;;;;;;1.90;1.75;;;;;;;21.20;65.76;98577.66;5091970;28;20029;-89
2022/09/27 07:07:42;;;;;;;1.70;1.40;;;;;;;21.47;65.83;98614.91;5091724;28;20103;-86
2022/09/27 07:10:09;;;;;;;3.00;2.25;;;;;;;21.68;67.11;98604.38;5091367;28;20039;-88
2022/09/27 07:12:35;;;;;;;4.53;1.85;;;;;;;21.17;67.31;98577.91;5092277;28;20036;-87
2022/09/27 07:15:01;;;;;;;1.00;0.85;;;;;;;21.54;65.27;98580.47;5092864;28;20032;-88
2022/09/27 07:17:27;;;;;;;0.75;0.75;;;;;;;21.41;65.35;98549.19;5092429;28;20492;-88
2022/09/27 07:19:53;;;;;;;2.80;2.60;;;;;;;22.26;62.52;98596.22;5074269;28;20572;-87
2022/09/27 07:22:19;;;;;;;4.95;2.03;;;;;;;22.45;60.50;98554.44;5091905;28;20028;-88
2022/09/27 07:24:44;;;;;;;0.68;0.68;;;;;;;22.40;60.39;98541.38;5091437;28;20115;-89
2022/09/27 07:27:10;;;;;;;1.45;1.35;;;;;;;22.57;62.05;98566.00;5071490;28;20032;-87
2022/09/27 07:29:35;;;;;;;1.77;1.65;;;;;;;22.42;61.75;98552.84;5088746;28;20028;-86
2022/09/27 07:32:02;;;;;;;1.92;1.73;;;;;;;22.82;61.79;98564.84;5089072;28;20043;-86
2022/09/27 07:34:27;;;;;;;2.67;2.30;;;;;;;23.29;59.00;98565.34;5090270;28;20501;-86
2022/09/27 07:36:58;;;;;;;2.63;2.42;;;;;;;22.78;58.63;98531.13;5088631;28;20024;-86
2022/09/27 07:39:23;;;;;;;37.28;2.47;;;;;;;22.87;58.79;98558.06;5089571;28;20726;-87
2022/09/27 07:41:49;;;;;;;1.83;1.17;;;;;;;22.53;59.00;98546.59;5091578;28;20028;-88
2022/09/27 07:44:15;;;;;;;28.77;1.92;;;;;;;22.65;61.09;98574.28;5090811;28;20024;-88
2022/09/27 07:46:41;;;;;;;4.50;3.15;;;;;;;22.53;59.74;98550.13;5090965;28;20040;-88
2022/09/27 07:49:06;;;;;;;0.38;0.38;;;;;;;23.03;58.90;98560.34;5090946;28;20059;-87
2022/09/27 07:51:32;;;;;;;1.48;1.38;;;;;;;23.23;57.42;98553.28;5090691;28;20063;-88
2022/09/27 07:54:00;;;;;;;1.23;1.15;;;;;;;22.98;57.63;98548.25;5091059;28;20035;-88
2022/09/27 07:56:26;;;;;;;1.50;1.15;;;;;;;23.32;57.47;98591.16;5090717;28;20062;-87
2022/09/27 07:58:51;;;;;;;3.08;1.40;;;;;;;23.34;56.96;98573.91;5090167;28;20024;-88
2022/09/27 08:01:17;;;;;;;1.17;1.17;;;;;;;23.80;55.79;98585.19;5072801;28;20024;-88
2022/09/27 08:03:43;;;;;;;0.20;0.20;;;;;;;24.30;55.42;98573.66;5090462;28;20428;-91
2022/09/27 08:06:09;;;;;;;1.23;0.95;;;;;;;24.50;55.80;98569.16;5091301;28;20114;-88
2022/09/27 08:08:35;;;;;;;0.73;0.63;;;;;;;24.25;53.35;98551.66;5090315;28;20078;-88
2022/09/27 08:11:01;;;;;;;0.85;0.63;;;;;;;24.80;54.33;98565.53;5090218;28;20394;-89
2022/09/27 08:13:26;;;;;;;0.90;0.88;;;;;;;25.32;50.89;98567.13;5090684;28;20032;-90
2022/09/27 08:15:51;;;;;;;3.50;1.20;;;;;;;25.42;50.87;98561.69;5090908;28;20032;-87
2022/09/27 08:18:17;;;;;;;0.75;0.75;;;;;;;25.17;51.63;98580.16;5090271;28;20032;-89
2022/09/27 08:20:43;;;;;;;2.65;0.70;;;;;;;24.62;52.09;98564.53;5089979;28;20114;-89
2022/09/27 08:23:09;;;;;;;1.65;0.68;;;;;;;24.70;52.55;98544.94;5090416;28;20032;-88
2022/09/27 08:25:35;;;;;;;1.10;1.00;;;;;;;24.96;51.54;98551.50;5072363;28;20032;-89
2022/09/27 08:28:03;;;;;;;2.70;2.35;;;;;;;24.83;51.46;98540.97;5089748;28;20028;-87
2022/09/27 08:30:31;;;;;;;1.73;1.63;;;;;;;24.95;52.55;98532.75;5089551;28;20055;-88
2022/09/27 08:32:57;;;;;;;1.50;1.00;;;;;;;25.36;51.56;98528.03;5090151;28;20032;-89
2022/09/27 08:35:23;;;;;;;0.45;0.45;;;;;;;25.42;51.00;98545.50;5071989;28;20201;-88
2022/09/27 08:37:54;;;;;;;3.53;2.30;;;;;;;25.14;50.27;98543.50;5088905;28;20047;-87
2022/09/27 08:40:22;;;;;;;0.40;0.38;;;;;;;25.51;49.36;98545.47;5090821;28;20035;-89
2022/09/27 08:43:14;;;;;;;0.22;0.22;;;;;;;25.31;49.93;98560.00;5072272;28;20074;-91
2022/09/27 08:46:21;;;;;;;1.20;1.00;;;;;;;25.42;49.36;98556.28;5081102;28;20039;-90
2022/09/27 08:48:57;;;;;;;0.52;0.50;;;;;;;25.24;48.84;98504.88;5090076;28;20034;-89
2022/09/27 08:51:29;;;;;;;2.28;2.08;;;;;;;25.43;49.47;98523.75;5090817;28;20462;-90
2022/09/27 08:54:04;;;;;;;2.65;1.77;;;;;;;24.97;49.87;98542.41;5090028;28;20038;-89
2022/09/27 08:56:30;;;;;;;2.50;1.17;;;;;;;24.71;51.89;98536.72;5056613;28;20032;-89
2022/09/27 08:59:15;;;;;;;1.30;1.00;;;;;;;24.91;51.17;98512.47;5090015;28;20036;-88
2022/09/27 09:01:41;;;;;;;1.75;1.65;;;;;;;25.40;50.46;98507.03;5090737;28;20046;-87
2022/09/27 09:04:30;;;;;;;2.05;1.95;;;;;;;25.51;49.92;98537.38;5090039;28;20067;-88
2022/09/27 09:07:15;;;;;;;3.42;1.10;;;;;;;25.39;49.57;98533.13;5071987;28;20038;-88
2022/09/27 09:09:40;;;;;;;;;;;;;;;25.46;49.08;98528.03;5088049;28;20031;-88
2022/09/27 09:12:45;;;;;;;4.93;1.65;;;;;;;25.71;49.73;98531.91;5084593;28;20021;-88
2022/09/27 09:15:28;;;;;;;1.58;1.48;;;;;;;25.35;49.87;98527.19;5086140;28;20032;-87
2022/09/27 09:18:18;;;;;;;3.20;1.20;;;;;;;25.57;49.57;98524.31;5085168;28;20502;-86
2022/09/27 09:20:57;;;;;;;1.27;1.17;;;;;;;25.50;49.50;98500.59;5083902;28;20027;-87
2022/09/27 09:23:49;;;;;;;3.60;1.17;;;;;;;25.68;49.07;98510.59;5083627;28;20032;-86
2022/09/27 09:26:42;;;;;;;18.48;2.67;;;;;;;25.78;49.37;98499.75;5085152;28;20486;-87
2022/09/27 09:29:23;;;;;;;1.88;0.85;;;;;;;26.05;48.79;98467.38;5084197;28;20114;-88
2022/09/27 09:32:07;;;;;;;0.40;0.40;;;;;;;26.14;48.13;98497.19;5087473;28;20024;-89
2022/09/27 09:34:41;;;;;;;0.60;0.60;;;;;;;26.03;48.26;98504.50;5078251;28;20028;-90
2022/09/27 09:37:32;;;;;;;3.83;1.33;;;;;;;26.33;47.68;98480.00;5088956;28;20793;-92
2022/09/27 09:40:07;;;;;;;0.77;0.77;;;;;;;26.14;47.52;98462.06;5090758;28;20494;-89
2022/09/27 09:42:39;;;;;;;3.38;1.17;;;;;;;25.36;50.58;98452.47;5070491;28;20032;-90
2022/09/27 09:45:21;;;;;;;1.02;0.95;;;;;;;25.65;50.50;98443.41;5071021;28;20127;-90
2022/09/27 09:48:00;;;;;;;0.50;0.50;;;;;;;25.67;48.97;98401.75;5071852;28;20086;-91
2022/09/27 09:51:00;;;;;;;0.63;0.63;;;;;;;25.82;49.02;98463.34;5071463;28;20021;-90
2022/09/27 09:53:55;;;;;;;0.20;0.20;;;;;;;26.08;48.36;98453.56;5070903;28;20028;-91
2022/09/27 09:56:35;;;;;;;1.33;1.23;;;;;;;25.84;49.65;98421.72;5070875;28;20033;-90
2022/09/27 09:59:26;;;;;;;1.80;1.67;;;;;;;26.44;46.89;98450.03;5071017;28;20033;-89
2022/09/27 10:08:41;;;;;;;0.60;0.60;;;;;;;25.79;46.37;98363.72;5070802;28;20040;-93
2022/09/27 10:17:57;;;;;;;0.68;0.68;;;;;;;26.22;48.71;98419.75;5073452;28;20036;-89
2022/09/27 10:20:45;;;;;;;0.60;0.60;;;;;;;26.53;47.26;98416.66;5074642;28;20031;-90
2022/09/27 10:26:57;;;;;;;0.10;0.10;;;;;;;26.31;46.81;98409.03;5074956;28;20102;-92
2022/09/27 10:32:49;;;;;;;0.57;0.57;;;;;;;25.97;47.66;98386.22;5074153;28;20493;-90
2022/09/27 10:35:31;;;;;;;0.38;0.30;;;;;;;25.97;47.40;98399.72;5055025;28;20821;-95
2022/09/27 10:38:38;;;;;;;0.35;0.35;;;;;;;26.17;47.20;98399.63;5054288;28;20053;-91
2022/09/27 10:44:40;;;;;;;14.48;1.48;;;;;;;26.46;47.19;98388.53;5074640;28;20090;-92
2022/09/27 10:47:15;;;;;;;2.25;1.88;;;;;;;26.76;46.10;98399.97;5074607;28;20052;-88
2022/09/27 10:49:41;;;;;;;0.43;0.43;;;;;;;26.39;47.28;98382.91;5073733;28;20433;-91
2022/09/27 10:52:48;;;;;;;1.95;1.73;;;;;;;26.20;46.95;98380.41;5073143;28;20047;-90
2022/09/27 10:55:25;;;;;;;1.00;0.93;;;;;;;26.19;46.68;98352.50;5072916;28;20390;-91
2022/09/27 10:57:58;;;;;;;4.82;3.58;;;;;;;26.08;47.08;98331.13;5072249;28;20032;-92
2022/09/27 11:01:11;;;;;;;2.20;2.00;;;;;;;26.02;47.45;98369.56;5072845;28;20028;-91
2022/09/27 11:03:47;;;;;;;3.13;1.38;;;;;;;26.05;46.71;98353.06;5071897;28;20490;-91
2022/09/27 11:06:21;;;;;;;1.92;1.25;;;;;;;26.51;46.79;98378.13;5073466;28;20032;-90
2022/09/27 11:08:49;;;;;;;1.70;1.60;;;;;;;26.18;46.50;98331.91;5072687;28;20039;-91
2022/09/27 11:11:24;;;;;;;0.30;0.30;;;;;;;26.20;45.35;98329.91;5073073;28;20029;-89
2022/09/27 11:14:03;;;;;;;;;;;;;;;26.26;46.41;98359.00;5073251;28;20467;-91
2022/09/27 11:17:08;;;;;;;1.67;1.58;;;;;;;26.31;45.59;98355.81;5072607;28;19920;-89
2022/09/27 11:19:36;;;;;;;0.70;0.70;;;;;;;26.68;45.90;98345.81;5072956;28;20112;-90
2022/09/27 11:25:41;;;;;;;2.15;2.05;;;;;;;26.77;44.68;98348.44;5072826;28;20552;-90
2022/09/27 11:32:08;;;;;;;0.65;0.65;;;;;;;26.72;45.35;98349.91;5072853;28;20036;-89
2022/09/27 11:34:53;;;;;;;0.55;0.35;;;;;;;27.04;44.19;98351.97;5073091;28;20094;-88
2022/09/27 11:37:18;;;;;;;3.05;2.78;;;;;;;26.75;45.65;98350.41;5070247;28;20045;-88
2022/09/27 11:40:20;;;;;;;0.20;0.20;;;;;;;27.03;44.36;98346.72;5070990;28;20106;-88
2022/09/27 11:43:26;;;;;;;0.70;0.70;;;;;;;26.89;43.76;98330.06;5071409;28;20059;-87
2022/09/27 11:46:12;;;;;;;1.95;1.40;;;;;;;26.68;43.61;98310.66;5071090;28;20032;-88
2022/09/27 11:49:07;;;;;;;0.57;0.57;;;;;;;26.75;41.55;98274.69;5071073;28;20040;-87
2022/09/27 11:51:48;;;;;;;0.20;0.20;;;;;;;26.67;42.57;98298.16;5071168;28;20032;-88
2022/09/27 11:54:46;;;;;;;0.30;0.30;;;;;;;26.82;42.48;98311.91;5071633;28;20032;-88
2022/09/27 11:57:21;;;;;;;0.75;0.55;;;;;;;26.98;42.82;98295.78;5067509;28;20045;-89
2022/09/27 12:00:15;;;;;;;0.38;0.38;;;;;;;27.09;42.58;98302.75;5072244;28;20043;-89
2022/09/27 12:02:59;;;;;;;0.38;0.30;;;;;;;27.24;41.25;98316.53;5052998;28;20024;-89
2022/09/27 12:05:38;;;;;;;0.43;0.43;;;;;;;27.23;40.35;98301.31;5052870;28;20025;-90
2022/09/27 12:08:21;;;;;;;1.20;1.10;;;;;;;27.29;40.87;98306.91;5070828;28;20032;-91
2022/09/27 12:10:55;;;;;;;0.73;0.55;;;;;;;27.07;42.15;98304.78;5069864;28;20040;-91
2022/09/27 12:13:51;;;;;;;0.63;0.63;;;;;;;26.89;41.70;98303.00;5052025;28;20032;-91
2022/09/27 12:16:19;;;;;;;0.43;0.43;;;;;;;27.24;42.11;98295.72;5051125;28;20036;-89
2022/09/27 12:18:47;;;;;;;1.55;1.13;;;;;;;27.20;42.47;98290.81;5070305;28;20047;-90
2022/09/27 12:21:14;;;;;;;0.68;0.28;;;;;;;27.19;42.21;98227.72;5052538;28;20501;-94
2022/09/27 12:23:53;;;;;;;0.40;0.40;;;;;;;27.61;41.15;98267.44;5052374;28;20040;-92
2022/09/27 12:26:24;;;;;;;1.05;0.68;;;;;;;27.53;41.09;98272.84;5069732;28;20058;-92
2022/09/27 12:28:54;;;;;;;0.63;0.63;;;;;;;27.57;40.66;98276.88;5071211;28;20098;-92
2022/09/27 12:31:30;;;;;;;2.05;0.43;;;;;;;27.61;40.88;98275.56;5053076;28;20024;-91
2022/09/27 12:34:03;;;;;;;1.98;0.70;;;;;;;27.76;40.14;98293.84;5070738;28;20039;-89
2022/09/27 12:36:37;;;;;;;0.20;0.20;;;;;;;27.99;39.52;98242.59;5070114;28;20117;-88
2022/09/27 12:39:12;;;;;;;1.23;0.80;;;;;;;28.19;38.77;98271.06;5068356;28;20048;-92
2022/09/27 12:41:40;;;;;;;0.80;0.80;;;;;;;28.30;38.02;98239.19;5069917;28;20094;-88
2022/09/27 12:44:09;;;;;;;0.63;0.60;;;;;;;28.51;37.90;98234.06;5069944;28;20028;-90